sensor_id;sensor_type;location;lat;lon;timestamp;temperature;humidity
11009;DHT22;5557;51.670;7.788;2024-01-07T00:01:49;1.00;99.90
11009;DHT22;5557;51.670;7.788;2024-01-07T00:04:16;1.00;99.90
11009;DHT22;5557;51.670;7.788;2024-01-07T00:06:43;0.90;99.90
11009;DHT22;5557;51.670;7.788;2024-01-07T00:09:11;1.00;99.90
11009;DHT22;5557;51.670;7.788;2024-01-07T00:11:40;0.90;99.90
11009;DHT22;5557;51.670;7.788;2024-01-07T00:14:07;1.00;99.90
11009;DHT22;5557;51.670;7.788;2024-01-07T00:16:34;1.00;99.90
11009;DHT22;5557;51.670;7.788;2024-01-07T00:19:01;1.00;99.90
11009;DHT22;5557;51.670;7.788;2024-01-07T00:21:28;1.00;99.90
11009;DHT22;5557;51.670;7.788;2024-01-07T00:23:55;0.90;99.90
11009;DHT22;5557;51.670;7.788;2024-01-07T00:26:22;0.90;99.90
11009;DHT22;5557;51.670;7.788;2024-01-07T00:28:50;0.90;99.90
11009;DHT22;5557;51.670;7.788;2024-01-07T00:31:17;0.90;99.90
11009;DHT22;5557;51.670;7.788;2024-01-07T00:33:45;0.80;99.90
11009;DHT22;5557;51.670;7.788;2024-01-07T00:36:12;0.90;99.90
11009;DHT22;5557;51.670;7.788;2024-01-07T00:38:39;0.90;99.90
11009;DHT22;5557;51.670;7.788;2024-01-07T00:41:06;0.90;99.90
11009;DHT22;5557;51.670;7.788;2024-01-07T00:43:33;0.90;99.90
11009;DHT22;5557;51.670;7.788;2024-01-07T00:46:00;0.90;99.90
11009;DHT22;5557;51.670;7.788;2024-01-07T00:48:27;0.90;99.90
11009;DHT22;5557;51.670;7.788;2024-01-07T00:50:54;0.90;99.90
11009;DHT22;5557;51.670;7.788;2024-01-07T00:53:22;0.90;99.90
11009;DHT22;5557;51.670;7.788;2024-01-07T00:55:49;0.90;99.90
11009;DHT22;5557;51.670;7.788;2024-01-07T00:58:17;0.90;99.90
11009;DHT22;5557;51.670;7.788;2024-01-07T01:00:44;1.00;99.90
11009;DHT22;5557;51.670;7.788;2024-01-07T01:03:11;1.00;99.90
11009;DHT22;5557;51.670;7.788;2024-01-07T01:05:38;0.90;99.90
11009;DHT22;5557;51.670;7.788;2024-01-07T01:08:05;0.90;99.90
11009;DHT22;5557;51.670;7.788;2024-01-07T01:10:32;0.90;99.90
11009;DHT22;5557;51.670;7.788;2024-01-07T01:12:59;0.90;99.90
11009;DHT22;5557;51.670;7.788;2024-01-07T01:15:26;0.90;99.90
11009;DHT22;5557;51.670;7.788;2024-01-07T01:17:53;0.90;99.90
11009;DHT22;5557;51.670;7.788;2024-01-07T01:20:20;0.90;99.90
11009;DHT22;5557;51.670;7.788;2024-01-07T01:22:47;0.90;99.90
11009;DHT22;5557;51.670;7.788;2024-01-07T01:25:14;0.90;99.90
11009;DHT22;5557;51.670;7.788;2024-01-07T01:27:41;0.90;99.90
11009;DHT22;5557;51.670;7.788;2024-01-07T01:30:08;1.00;99.90
11009;DHT22;5557;51.670;7.788;2024-01-07T01:32:36;1.00;99.90
11009;DHT22;5557;51.670;7.788;2024-01-07T01:35:05;1.00;99.90
11009;DHT22;5557;51.670;7.788;2024-01-07T01:37:32;1.00;99.90
11009;DHT22;5557;51.670;7.788;2024-01-07T01:40:03;1.00;99.90
11009;DHT22;5557;51.670;7.788;2024-01-07T01:42:31;1.00;99.90
11009;DHT22;5557;51.670;7.788;2024-01-07T01:44:58;1.00;99.90
11009;DHT22;5557;51.670;7.788;2024-01-07T01:47:31;1.00;99.90
11009;DHT22;5557;51.670;7.788;2024-01-07T01:49:58;0.90;99.90
11009;DHT22;5557;51.670;7.788;2024-01-07T01:52:26;0.90;99.90
11009;DHT22;5557;51.670;7.788;2024-01-07T01:54:54;0.90;99.90
11009;DHT22;5557;51.670;7.788;2024-01-07T01:57:22;1.00;99.90
11009;DHT22;5557;51.670;7.788;2024-01-07T01:59:51;1.00;99.90
11009;DHT22;5557;51.670;7.788;2024-01-07T02:02:18;1.00;99.90
11009;DHT22;5557;51.670;7.788;2024-01-07T02:04:45;1.00;99.90
11009;DHT22;5557;51.670;7.788;2024-01-07T02:07:12;1.00;99.90
11009;DHT22;5557;51.670;7.788;2024-01-07T02:09:39;1.00;99.90
11009;DHT22;5557;51.670;7.788;2024-01-07T02:12:07;0.90;99.90
11009;DHT22;5557;51.670;7.788;2024-01-07T02:14:38;0.90;99.90
11009;DHT22;5557;51.670;7.788;2024-01-07T02:17:06;0.90;99.90
11009;DHT22;5557;51.670;7.788;2024-01-07T02:19:33;0.90;99.90
11009;DHT22;5557;51.670;7.788;2024-01-07T02:22:00;0.80;99.90
11009;DHT22;5557;51.670;7.788;2024-01-07T02:24:27;0.80;99.90
11009;DHT22;5557;51.670;7.788;2024-01-07T02:26:54;0.80;99.90
11009;DHT22;5557;51.670;7.788;2024-01-07T02:29:21;0.80;99.90
11009;DHT22;5557;51.670;7.788;2024-01-07T02:31:49;0.80;99.90
11009;DHT22;5557;51.670;7.788;2024-01-07T02:34:16;0.80;99.90
11009;DHT22;5557;51.670;7.788;2024-01-07T02:36:43;0.80;99.90
11009;DHT22;5557;51.670;7.788;2024-01-07T02:39:10;0.80;99.90
11009;DHT22;5557;51.670;7.788;2024-01-07T02:41:37;0.80;99.90
11009;DHT22;5557;51.670;7.788;2024-01-07T02:44:04;0.80;99.90
11009;DHT22;5557;51.670;7.788;2024-01-07T02:46:31;0.80;99.90
11009;DHT22;5557;51.670;7.788;2024-01-07T02:48:58;0.80;99.90
11009;DHT22;5557;51.670;7.788;2024-01-07T02:51:25;0.80;99.90
11009;DHT22;5557;51.670;7.788;2024-01-07T02:53:52;0.80;99.90
11009;DHT22;5557;51.670;7.788;2024-01-07T02:56:19;0.80;99.90
11009;DHT22;5557;51.670;7.788;2024-01-07T02:58:46;0.80;99.90
11009;DHT22;5557;51.670;7.788;2024-01-07T03:01:13;0.80;99.90
11009;DHT22;5557;51.670;7.788;2024-01-07T03:03:40;0.80;99.90
11009;DHT22;5557;51.670;7.788;2024-01-07T03:06:07;0.80;99.90
11009;DHT22;5557;51.670;7.788;2024-01-07T03:08:35;0.80;99.90
11009;DHT22;5557;51.670;7.788;2024-01-07T03:11:05;0.70;99.90
11009;DHT22;5557;51.670;7.788;2024-01-07T03:13:33;0.80;99.90
11009;DHT22;5557;51.670;7.788;2024-01-07T03:16:00;0.80;99.90
11009;DHT22;5557;51.670;7.788;2024-01-07T03:18:27;0.80;99.90
11009;DHT22;5557;51.670;7.788;2024-01-07T03:20:56;0.80;99.10
11009;DHT22;5557;51.670;7.788;2024-01-07T03:23:23;0.80;99.00
11009;DHT22;5557;51.670;7.788;2024-01-07T03:25:50;0.70;98.00
11009;DHT22;5557;51.670;7.788;2024-01-07T03:28:17;0.70;97.00
11009;DHT22;5557;51.670;7.788;2024-01-07T03:30:45;0.70;97.20
11009;DHT22;5557;51.670;7.788;2024-01-07T03:33:12;0.70;97.70
11009;DHT22;5557;51.670;7.788;2024-01-07T03:35:40;0.70;98.20
11009;DHT22;5557;51.670;7.788;2024-01-07T03:38:07;0.60;98.10
11009;DHT22;5557;51.670;7.788;2024-01-07T03:40:34;0.60;98.80
11009;DHT22;5557;51.670;7.788;2024-01-07T03:43:01;0.60;99.00
11009;DHT22;5557;51.670;7.788;2024-01-07T03:45:28;0.60;99.70
11009;DHT22;5557;51.670;7.788;2024-01-07T03:47:55;0.60;99.90
11009;DHT22;5557;51.670;7.788;2024-01-07T03:50:22;0.60;99.90
11009;DHT22;5557;51.670;7.788;2024-01-07T03:52:49;0.60;99.90
11009;DHT22;5557;51.670;7.788;2024-01-07T03:55:16;0.60;99.90
11009;DHT22;5557;51.670;7.788;2024-01-07T03:57:43;0.60;99.90
11009;DHT22;5557;51.670;7.788;2024-01-07T04:00:11;0.50;99.90
11009;DHT22;5557;51.670;7.788;2024-01-07T04:02:38;0.60;99.90
11009;DHT22;5557;51.670;7.788;2024-01-07T04:05:05;0.50;99.90
11009;DHT22;5557;51.670;7.788;2024-01-07T04:07:32;0.50;99.90
11009;DHT22;5557;51.670;7.788;2024-01-07T04:09:59;0.50;99.90
11009;DHT22;5557;51.670;7.788;2024-01-07T04:12:26;0.50;99.90
11009;DHT22;5557;51.670;7.788;2024-01-07T04:14:53;0.50;99.90
11009;DHT22;5557;51.670;7.788;2024-01-07T04:17:20;0.50;99.90
11009;DHT22;5557;51.670;7.788;2024-01-07T04:19:47;0.50;99.90
11009;DHT22;5557;51.670;7.788;2024-01-07T04:22:14;0.50;99.90
11009;DHT22;5557;51.670;7.788;2024-01-07T04:24:41;0.50;99.90
11009;DHT22;5557;51.670;7.788;2024-01-07T04:27:08;0.50;99.90
11009;DHT22;5557;51.670;7.788;2024-01-07T04:29:36;0.50;99.90
11009;DHT22;5557;51.670;7.788;2024-01-07T04:32:03;0.50;99.90
11009;DHT22;5557;51.670;7.788;2024-01-07T04:34:30;0.50;99.90
11009;DHT22;5557;51.670;7.788;2024-01-07T04:36:58;0.50;99.90
11009;DHT22;5557;51.670;7.788;2024-01-07T04:39:25;0.50;99.90
11009;DHT22;5557;51.670;7.788;2024-01-07T04:41:52;0.50;99.90
11009;DHT22;5557;51.670;7.788;2024-01-07T04:44:19;0.50;99.90
11009;DHT22;5557;51.670;7.788;2024-01-07T04:46:47;0.50;99.70
11009;DHT22;5557;51.670;7.788;2024-01-07T04:49:15;0.50;99.50
11009;DHT22;5557;51.670;7.788;2024-01-07T04:51:42;0.50;98.20
11009;DHT22;5557;51.670;7.788;2024-01-07T04:54:09;0.50;96.20
11009;DHT22;5557;51.670;7.788;2024-01-07T04:56:36;0.50;96.30
11009;DHT22;5557;51.670;7.788;2024-01-07T04:59:03;0.50;95.90
11009;DHT22;5557;51.670;7.788;2024-01-07T05:01:33;0.50;95.40
11009;DHT22;5557;51.670;7.788;2024-01-07T05:04:02;0.50;94.80
11009;DHT22;5557;51.670;7.788;2024-01-07T05:06:29;0.50;94.50
11009;DHT22;5557;51.670;7.788;2024-01-07T05:08:56;0.50;94.70
11009;DHT22;5557;51.670;7.788;2024-01-07T05:11:23;0.50;93.50
11009;DHT22;5557;51.670;7.788;2024-01-07T05:13:50;0.50;93.00
11009;DHT22;5557;51.670;7.788;2024-01-07T05:16:20;0.50;92.50
11009;DHT22;5557;51.670;7.788;2024-01-07T05:18:47;0.50;90.30
11009;DHT22;5557;51.670;7.788;2024-01-07T05:21:18;0.50;82.50
11009;DHT22;5557;51.670;7.788;2024-01-07T05:23:45;0.50;80.70
11009;DHT22;5557;51.670;7.788;2024-01-07T05:26:12;0.50;80.30
11009;DHT22;5557;51.670;7.788;2024-01-07T05:28:39;0.50;79.50
11009;DHT22;5557;51.670;7.788;2024-01-07T05:31:24;0.50;79.70
11009;DHT22;5557;51.670;7.788;2024-01-07T05:33:52;0.60;79.10
11009;DHT22;5557;51.670;7.788;2024-01-07T05:36:19;0.50;78.00
11009;DHT22;5557;51.670;7.788;2024-01-07T05:38:46;0.50;77.50
11009;DHT22;5557;51.670;7.788;2024-01-07T05:41:13;0.50;72.60
11009;DHT22;5557;51.670;7.788;2024-01-07T05:43:40;0.50;74.80
11009;DHT22;5557;51.670;7.788;2024-01-07T05:46:07;0.50;77.30
11009;DHT22;5557;51.670;7.788;2024-01-07T05:48:45;0.50;76.30
11009;DHT22;5557;51.670;7.788;2024-01-07T05:51:13;0.50;75.20
11009;DHT22;5557;51.670;7.788;2024-01-07T05:53:44;0.50;74.50
11009;DHT22;5557;51.670;7.788;2024-01-07T05:56:11;0.50;73.80
11009;DHT22;5557;51.670;7.788;2024-01-07T05:58:38;0.40;72.20
11009;DHT22;5557;51.670;7.788;2024-01-07T06:01:05;0.40;67.20
11009;DHT22;5557;51.670;7.788;2024-01-07T06:03:34;0.50;66.00
11009;DHT22;5557;51.670;7.788;2024-01-07T06:06:01;0.40;65.40
11009;DHT22;5557;51.670;7.788;2024-01-07T06:08:28;0.50;66.80
11009;DHT22;5557;51.670;7.788;2024-01-07T06:10:55;0.40;65.00
11009;DHT22;5557;51.670;7.788;2024-01-07T06:13:22;0.50;64.10
11009;DHT22;5557;51.670;7.788;2024-01-07T06:15:50;0.50;62.20
11009;DHT22;5557;51.670;7.788;2024-01-07T06:18:17;0.40;63.40
11009;DHT22;5557;51.670;7.788;2024-01-07T06:20:44;0.50;64.70
11009;DHT22;5557;51.670;7.788;2024-01-07T06:23:11;0.40;60.70
11009;DHT22;5557;51.670;7.788;2024-01-07T06:25:38;0.40;60.90
11009;DHT22;5557;51.670;7.788;2024-01-07T06:28:06;0.40;57.00
11009;DHT22;5557;51.670;7.788;2024-01-07T06:30:33;0.40;59.80
11009;DHT22;5557;51.670;7.788;2024-01-07T06:33:01;0.40;61.50
11009;DHT22;5557;51.670;7.788;2024-01-07T06:35:28;0.30;62.40
11009;DHT22;5557;51.670;7.788;2024-01-07T06:37:55;0.20;64.70
11009;DHT22;5557;51.670;7.788;2024-01-07T06:40:22;0.20;68.40
11009;DHT22;5557;51.670;7.788;2024-01-07T06:42:49;0.20;70.50
11009;DHT22;5557;51.670;7.788;2024-01-07T06:45:17;0.10;73.20
11009;DHT22;5557;51.670;7.788;2024-01-07T06:47:44;0.10;77.40
11009;DHT22;5557;51.670;7.788;2024-01-07T06:50:11;0.10;79.40
11009;DHT22;5557;51.670;7.788;2024-01-07T06:52:38;0.10;80.40
11009;DHT22;5557;51.670;7.788;2024-01-07T06:55:06;0.10;81.10
11009;DHT22;5557;51.670;7.788;2024-01-07T06:57:33;0.10;81.30
11009;DHT22;5557;51.670;7.788;2024-01-07T07:00:00;0.10;80.80
11009;DHT22;5557;51.670;7.788;2024-01-07T07:02:27;0.10;77.00
11009;DHT22;5557;51.670;7.788;2024-01-07T07:04:54;0.00;75.50
11009;DHT22;5557;51.670;7.788;2024-01-07T07:07:21;0.00;77.30
11009;DHT22;5557;51.670;7.788;2024-01-07T07:09:48;-0.10;80.40
11009;DHT22;5557;51.670;7.788;2024-01-07T07:12:15;-0.10;82.90
11009;DHT22;5557;51.670;7.788;2024-01-07T07:14:42;0.00;87.20
11009;DHT22;5557;51.670;7.788;2024-01-07T07:17:09;0.00;90.90
11009;DHT22;5557;51.670;7.788;2024-01-07T07:19:36;0.00;92.60
11009;DHT22;5557;51.670;7.788;2024-01-07T07:22:04;-0.10;94.20
11009;DHT22;5557;51.670;7.788;2024-01-07T07:24:31;-0.10;94.40
11009;DHT22;5557;51.670;7.788;2024-01-07T07:26:58;-0.10;95.10
11009;DHT22;5557;51.670;7.788;2024-01-07T07:29:25;-0.10;95.00
11009;DHT22;5557;51.670;7.788;2024-01-07T07:31:52;-0.10;94.50
11009;DHT22;5557;51.670;7.788;2024-01-07T07:34:19;-0.10;94.30
11009;DHT22;5557;51.670;7.788;2024-01-07T07:36:47;-0.10;93.00
11009;DHT22;5557;51.670;7.788;2024-01-07T07:39:14;-0.10;88.80
11009;DHT22;5557;51.670;7.788;2024-01-07T07:41:41;-0.10;77.70
11009;DHT22;5557;51.670;7.788;2024-01-07T07:44:08;-0.10;63.90
11009;DHT22;5557;51.670;7.788;2024-01-07T07:46:35;-0.10;61.70
11009;DHT22;5557;51.670;7.788;2024-01-07T07:49:02;-0.10;55.70
11009;DHT22;5557;51.670;7.788;2024-01-07T07:51:29;-0.10;48.90
11009;DHT22;5557;51.670;7.788;2024-01-07T07:53:56;-0.10;47.50
11009;DHT22;5557;51.670;7.788;2024-01-07T07:56:24;-0.10;47.60
11009;DHT22;5557;51.670;7.788;2024-01-07T07:58:51;-0.10;48.90
11009;DHT22;5557;51.670;7.788;2024-01-07T08:01:18;-0.10;43.60
11009;DHT22;5557;51.670;7.788;2024-01-07T08:03:45;-0.10;41.70
11009;DHT22;5557;51.670;7.788;2024-01-07T08:06:12;-0.10;41.10
11009;DHT22;5557;51.670;7.788;2024-01-07T08:08:39;-0.10;40.00
11009;DHT22;5557;51.670;7.788;2024-01-07T08:11:06;-0.10;39.90
11009;DHT22;5557;51.670;7.788;2024-01-07T08:13:36;-0.10;41.30
11009;DHT22;5557;51.670;7.788;2024-01-07T08:16:04;-0.10;43.40
11009;DHT22;5557;51.670;7.788;2024-01-07T08:18:32;-0.10;41.60
11009;DHT22;5557;51.670;7.788;2024-01-07T08:20:59;-0.10;39.00
11009;DHT22;5557;51.670;7.788;2024-01-07T08:23:27;-0.10;37.30
11009;DHT22;5557;51.670;7.788;2024-01-07T08:25:54;-0.10;35.60
11009;DHT22;5557;51.670;7.788;2024-01-07T08:28:21;-0.20;36.90
11009;DHT22;5557;51.670;7.788;2024-01-07T08:30:48;-0.20;37.40
11009;DHT22;5557;51.670;7.788;2024-01-07T08:33:16;-0.10;40.70
11009;DHT22;5557;51.670;7.788;2024-01-07T08:35:44;-0.10;43.70
11009;DHT22;5557;51.670;7.788;2024-01-07T08:38:11;-0.10;40.30
11009;DHT22;5557;51.670;7.788;2024-01-07T08:40:38;-0.10;40.20
11009;DHT22;5557;51.670;7.788;2024-01-07T08:43:05;-0.20;36.60
11009;DHT22;5557;51.670;7.788;2024-01-07T08:45:32;-0.20;37.00
11009;DHT22;5557;51.670;7.788;2024-01-07T08:47:59;-0.20;34.00
11009;DHT22;5557;51.670;7.788;2024-01-07T08:50:26;-0.20;31.60
11009;DHT22;5557;51.670;7.788;2024-01-07T08:52:53;-0.20;31.60
11009;DHT22;5557;51.670;7.788;2024-01-07T08:55:20;-0.20;31.60
11009;DHT22;5557;51.670;7.788;2024-01-07T08:57:47;-0.10;31.90
11009;DHT22;5557;51.670;7.788;2024-01-07T09:00:16;-0.10;28.90
11009;DHT22;5557;51.670;7.788;2024-01-07T09:02:43;-0.10;30.10
11009;DHT22;5557;51.670;7.788;2024-01-07T09:05:10;-0.10;29.50
11009;DHT22;5557;51.670;7.788;2024-01-07T09:07:39;-0.10;28.80
11009;DHT22;5557;51.670;7.788;2024-01-07T09:10:06;-0.10;15.50
11009;DHT22;5557;51.670;7.788;2024-01-07T09:12:38;-0.10;14.10
11009;DHT22;5557;51.670;7.788;2024-01-07T09:15:06;-0.10;12.90
11009;DHT22;5557;51.670;7.788;2024-01-07T09:17:37;-0.10;12.80
11009;DHT22;5557;51.670;7.788;2024-01-07T09:20:06;-0.10;14.70
11009;DHT22;5557;51.670;7.788;2024-01-07T09:22:35;0.00;18.10
11009;DHT22;5557;51.670;7.788;2024-01-07T09:25:03;-0.10;21.10
11009;DHT22;5557;51.670;7.788;2024-01-07T09:27:31;-0.10;18.00
11009;DHT22;5557;51.670;7.788;2024-01-07T09:29:58;-0.10;14.50
11009;DHT22;5557;51.670;7.788;2024-01-07T09:32:25;-0.10;16.20
11009;DHT22;5557;51.670;7.788;2024-01-07T09:34:52;0.00;17.50
11009;DHT22;5557;51.670;7.788;2024-01-07T09:37:20;-0.10;13.00
11009;DHT22;5557;51.670;7.788;2024-01-07T09:39:47;-0.10;14.00
11009;DHT22;5557;51.670;7.788;2024-01-07T09:42:16;-0.10;13.70
11009;DHT22;5557;51.670;7.788;2024-01-07T09:44:44;0.00;14.30
11009;DHT22;5557;51.670;7.788;2024-01-07T09:47:14;0.00;12.70
11009;DHT22;5557;51.670;7.788;2024-01-07T09:49:42;-0.10;11.90
11009;DHT22;5557;51.670;7.788;2024-01-07T09:52:10;-0.10;9.50
11009;DHT22;5557;51.670;7.788;2024-01-07T09:54:39;-0.10;9.30
11009;DHT22;5557;51.670;7.788;2024-01-07T09:57:07;-0.10;7.90
11009;DHT22;5557;51.670;7.788;2024-01-07T09:59:35;-0.10;9.20
11009;DHT22;5557;51.670;7.788;2024-01-07T10:02:03;-0.10;9.40
11009;DHT22;5557;51.670;7.788;2024-01-07T10:04:31;0.00;8.10
11009;DHT22;5557;51.670;7.788;2024-01-07T10:06:58;-0.10;7.50
11009;DHT22;5557;51.670;7.788;2024-01-07T10:09:32;-0.10;6.50
11009;DHT22;5557;51.670;7.788;2024-01-07T10:12:00;-0.10;3.30
11009;DHT22;5557;51.670;7.788;2024-01-07T10:14:27;0.00;4.90
11009;DHT22;5557;51.670;7.788;2024-01-07T10:16:58;0.00;1.10
11009;DHT22;5557;51.670;7.788;2024-01-07T10:19:25;0.00;1.00
11009;DHT22;5557;51.670;7.788;2024-01-07T10:22:03;0.00;1.00
11009;DHT22;5557;51.670;7.788;2024-01-07T10:24:41;0.00;1.00
11009;DHT22;5557;51.670;7.788;2024-01-07T10:27:09;0.00;1.00
11009;DHT22;5557;51.670;7.788;2024-01-07T10:29:36;-0.10;1.00
11009;DHT22;5557;51.670;7.788;2024-01-07T10:32:04;-0.20;1.00
11009;DHT22;5557;51.670;7.788;2024-01-07T10:34:35;-0.20;1.00
11009;DHT22;5557;51.670;7.788;2024-01-07T10:37:04;-0.20;1.00
11009;DHT22;5557;51.670;7.788;2024-01-07T10:39:32;-0.30;1.00
11009;DHT22;5557;51.670;7.788;2024-01-07T10:41:59;-0.30;1.00
11009;DHT22;5557;51.670;7.788;2024-01-07T10:44:29;-0.30;1.00
11009;DHT22;5557;51.670;7.788;2024-01-07T10:46:58;-0.30;1.00
11009;DHT22;5557;51.670;7.788;2024-01-07T10:49:28;-0.30;1.00
11009;DHT22;5557;51.670;7.788;2024-01-07T10:52:06;-0.20;1.00
11009;DHT22;5557;51.670;7.788;2024-01-07T10:54:35;-0.40;1.00
11009;DHT22;5557;51.670;7.788;2024-01-07T10:59:50;-0.50;1.00
11009;DHT22;5557;51.670;7.788;2024-01-07T11:02:20;-0.60;1.00
11009;DHT22;5557;51.670;7.788;2024-01-07T11:05:17;-0.60;1.00
11009;DHT22;5557;51.670;7.788;2024-01-07T11:07:57;-0.60;1.00
11009;DHT22;5557;51.670;7.788;2024-01-07T11:10:35;-0.60;1.00
11009;DHT22;5557;51.670;7.788;2024-01-07T11:13:44;-0.60;1.00
11009;DHT22;5557;51.670;7.788;2024-01-07T11:16:11;-0.50;1.00
11009;DHT22;5557;51.670;7.788;2024-01-07T11:18:41;-0.50;1.00
11009;DHT22;5557;51.670;7.788;2024-01-07T11:21:21;-0.40;1.00
11009;DHT22;5557;51.670;7.788;2024-01-07T11:23:48;-0.40;1.00
11009;DHT22;5557;51.670;7.788;2024-01-07T11:26:15;-0.40;1.00
11009;DHT22;5557;51.670;7.788;2024-01-07T11:28:53;-0.40;1.00
11009;DHT22;5557;51.670;7.788;2024-01-07T11:34:43;-0.50;1.00
11009;DHT22;5557;51.670;7.788;2024-01-07T11:37:19;-0.50;1.00
11009;DHT22;5557;51.670;7.788;2024-01-07T11:39:50;-0.60;1.00
11009;DHT22;5557;51.670;7.788;2024-01-07T11:42:17;-0.60;1.00
11009;DHT22;5557;51.670;7.788;2024-01-07T11:44:49;-0.60;1.00
11009;DHT22;5557;51.670;7.788;2024-01-07T11:47:17;-0.60;1.00
11009;DHT22;5557;51.670;7.788;2024-01-07T11:49:47;-0.60;1.00
11009;DHT22;5557;51.670;7.788;2024-01-07T11:52:16;-0.60;1.00
11009;DHT22;5557;51.670;7.788;2024-01-07T11:54:43;-0.50;1.00
11009;DHT22;5557;51.670;7.788;2024-01-07T11:57:10;-0.50;1.00
11009;DHT22;5557;51.670;7.788;2024-01-07T11:59:37;-0.50;1.00
11009;DHT22;5557;51.670;7.788;2024-01-07T12:02:09;-0.50;1.00
11009;DHT22;5557;51.670;7.788;2024-01-07T12:04:36;-0.50;1.00
11009;DHT22;5557;51.670;7.788;2024-01-07T12:07:04;-0.50;1.00
11009;DHT22;5557;51.670;7.788;2024-01-07T12:09:32;-0.60;1.00
11009;DHT22;5557;51.670;7.788;2024-01-07T12:11:59;-0.60;1.00
11009;DHT22;5557;51.670;7.788;2024-01-07T12:14:28;-0.60;1.00
11009;DHT22;5557;51.670;7.788;2024-01-07T12:16:55;-0.60;1.00
11009;DHT22;5557;51.670;7.788;2024-01-07T12:19:22;-0.60;1.00
11009;DHT22;5557;51.670;7.788;2024-01-07T12:22:02;-0.60;1.00
11009;DHT22;5557;51.670;7.788;2024-01-07T12:24:29;-0.50;1.00
11009;DHT22;5557;51.670;7.788;2024-01-07T12:26:56;-0.50;1.00
11009;DHT22;5557;51.670;7.788;2024-01-07T12:29:23;-0.50;1.00
11009;DHT22;5557;51.670;7.788;2024-01-07T12:31:52;-0.50;1.00
11009;DHT22;5557;51.670;7.788;2024-01-07T12:34:21;-0.40;1.00
11009;DHT22;5557;51.670;7.788;2024-01-07T12:36:50;-0.40;1.00
11009;DHT22;5557;51.670;7.788;2024-01-07T12:39:18;-0.30;1.00
11009;DHT22;5557;51.670;7.788;2024-01-07T12:41:45;-0.30;1.00
11009;DHT22;5557;51.670;7.788;2024-01-07T12:44:14;-0.30;1.00
11009;DHT22;5557;51.670;7.788;2024-01-07T12:46:40;-0.30;1.00
11009;DHT22;5557;51.670;7.788;2024-01-07T12:49:07;-0.30;1.00
11009;DHT22;5557;51.670;7.788;2024-01-07T12:51:35;-0.30;1.00
11009;DHT22;5557;51.670;7.788;2024-01-07T12:54:02;-0.30;1.00
11009;DHT22;5557;51.670;7.788;2024-01-07T12:56:30;-0.30;1.00
11009;DHT22;5557;51.670;7.788;2024-01-07T12:58:58;-0.30;1.00
11009;DHT22;5557;51.670;7.788;2024-01-07T13:01:25;-0.20;1.00
11009;DHT22;5557;51.670;7.788;2024-01-07T13:03:52;-0.20;1.00
11009;DHT22;5557;51.670;7.788;2024-01-07T13:06:19;-0.20;1.00
11009;DHT22;5557;51.670;7.788;2024-01-07T13:08:47;-0.20;1.00
11009;DHT22;5557;51.670;7.788;2024-01-07T13:11:14;-0.10;1.00
11009;DHT22;5557;51.670;7.788;2024-01-07T13:13:43;-0.10;1.00
11009;DHT22;5557;51.670;7.788;2024-01-07T13:16:10;-0.20;1.00
11009;DHT22;5557;51.670;7.788;2024-01-07T13:18:38;-0.10;1.00
11009;DHT22;5557;51.670;7.788;2024-01-07T13:21:05;-0.20;1.00
11009;DHT22;5557;51.670;7.788;2024-01-07T13:23:33;-0.20;1.00
11009;DHT22;5557;51.670;7.788;2024-01-07T13:26:00;-0.10;1.00
11009;DHT22;5557;51.670;7.788;2024-01-07T13:28:32;-0.10;1.00
11009;DHT22;5557;51.670;7.788;2024-01-07T13:31:02;-0.10;1.00
11009;DHT22;5557;51.670;7.788;2024-01-07T13:33:39;-0.10;1.00
11009;DHT22;5557;51.670;7.788;2024-01-07T13:36:07;-0.10;1.00
11009;DHT22;5557;51.670;7.788;2024-01-07T13:38:36;-0.10;1.00
11009;DHT22;5557;51.670;7.788;2024-01-07T13:41:05;-0.10;1.00
11009;DHT22;5557;51.670;7.788;2024-01-07T13:43:32;-0.10;1.00
11009;DHT22;5557;51.670;7.788;2024-01-07T13:45:59;-0.10;1.00
11009;DHT22;5557;51.670;7.788;2024-01-07T13:48:26;-0.10;1.00
11009;DHT22;5557;51.670;7.788;2024-01-07T13:50:53;-0.10;1.00
11009;DHT22;5557;51.670;7.788;2024-01-07T13:53:21;-0.10;1.00
11009;DHT22;5557;51.670;7.788;2024-01-07T13:55:48;-0.10;1.00
11009;DHT22;5557;51.670;7.788;2024-01-07T13:58:15;-0.10;1.00
11009;DHT22;5557;51.670;7.788;2024-01-07T14:00:43;-0.10;1.00
11009;DHT22;5557;51.670;7.788;2024-01-07T14:03:10;-0.10;1.00
11009;DHT22;5557;51.670;7.788;2024-01-07T14:05:37;-0.10;1.00
11009;DHT22;5557;51.670;7.788;2024-01-07T14:08:04;-0.10;1.00
11009;DHT22;5557;51.670;7.788;2024-01-07T14:10:31;0.00;1.00
11009;DHT22;5557;51.670;7.788;2024-01-07T14:12:59;0.00;1.00
11009;DHT22;5557;51.670;7.788;2024-01-07T14:15:26;0.00;1.00
11009;DHT22;5557;51.670;7.788;2024-01-07T14:17:53;0.00;1.00
11009;DHT22;5557;51.670;7.788;2024-01-07T14:20:20;0.00;1.00
11009;DHT22;5557;51.670;7.788;2024-01-07T14:22:48;0.00;1.00
11009;DHT22;5557;51.670;7.788;2024-01-07T14:25:16;0.00;1.00
11009;DHT22;5557;51.670;7.788;2024-01-07T14:27:46;0.00;1.00
11009;DHT22;5557;51.670;7.788;2024-01-07T14:30:17;0.00;1.00
11009;DHT22;5557;51.670;7.788;2024-01-07T14:32:47;0.00;1.00
11009;DHT22;5557;51.670;7.788;2024-01-07T14:35:18;0.00;1.00
11009;DHT22;5557;51.670;7.788;2024-01-07T14:37:45;0.00;1.00
11009;DHT22;5557;51.670;7.788;2024-01-07T14:40:13;0.00;1.00
11009;DHT22;5557;51.670;7.788;2024-01-07T14:42:40;0.00;1.00
11009;DHT22;5557;51.670;7.788;2024-01-07T14:45:08;0.00;1.00
11009;DHT22;5557;51.670;7.788;2024-01-07T14:47:35;0.00;1.00
11009;DHT22;5557;51.670;7.788;2024-01-07T14:50:02;0.00;1.00
11009;DHT22;5557;51.670;7.788;2024-01-07T14:52:33;0.00;1.00
11009;DHT22;5557;51.670;7.788;2024-01-07T14:55:00;0.00;1.00
11009;DHT22;5557;51.670;7.788;2024-01-07T14:57:29;0.00;1.00
11009;DHT22;5557;51.670;7.788;2024-01-07T14:59:56;0.00;1.00
11009;DHT22;5557;51.670;7.788;2024-01-07T15:02:23;0.00;1.00
11009;DHT22;5557;51.670;7.788;2024-01-07T15:04:50;0.00;1.00
11009;DHT22;5557;51.670;7.788;2024-01-07T15:07:19;0.00;1.00
11009;DHT22;5557;51.670;7.788;2024-01-07T15:09:47;0.00;1.00
11009;DHT22;5557;51.670;7.788;2024-01-07T15:12:14;0.00;1.00
11009;DHT22;5557;51.670;7.788;2024-01-07T15:14:41;0.00;1.00
11009;DHT22;5557;51.670;7.788;2024-01-07T15:17:08;0.00;1.00
11009;DHT22;5557;51.670;7.788;2024-01-07T15:19:36;0.00;1.00
11009;DHT22;5557;51.670;7.788;2024-01-07T15:22:03;-0.10;1.00
11009;DHT22;5557;51.670;7.788;2024-01-07T15:24:31;-0.10;1.00
11009;DHT22;5557;51.670;7.788;2024-01-07T15:26:58;-0.10;1.00
11009;DHT22;5557;51.670;7.788;2024-01-07T15:29:25;-0.10;1.00
11009;DHT22;5557;51.670;7.788;2024-01-07T15:31:52;-0.10;1.00
11009;DHT22;5557;51.670;7.788;2024-01-07T15:34:21;-0.10;1.00
11009;DHT22;5557;51.670;7.788;2024-01-07T15:36:49;-0.10;1.00
11009;DHT22;5557;51.670;7.788;2024-01-07T15:39:17;-0.20;1.00
11009;DHT22;5557;51.670;7.788;2024-01-07T15:41:46;-0.20;1.00
11009;DHT22;5557;51.670;7.788;2024-01-07T15:44:13;-0.10;1.00
11009;DHT22;5557;51.670;7.788;2024-01-07T15:46:40;-0.20;1.00
11009;DHT22;5557;51.670;7.788;2024-01-07T15:49:07;-0.10;1.00
11009;DHT22;5557;51.670;7.788;2024-01-07T15:51:34;-0.10;1.00
11009;DHT22;5557;51.670;7.788;2024-01-07T15:54:01;-0.10;1.00
11009;DHT22;5557;51.670;7.788;2024-01-07T15:56:28;-0.10;1.00
11009;DHT22;5557;51.670;7.788;2024-01-07T15:58:55;-0.10;1.00
11009;DHT22;5557;51.670;7.788;2024-01-07T16:01:22;-0.10;1.00
11009;DHT22;5557;51.670;7.788;2024-01-07T16:03:50;-0.10;1.00
11009;DHT22;5557;51.670;7.788;2024-01-07T16:06:17;-0.10;1.00
11009;DHT22;5557;51.670;7.788;2024-01-07T16:08:44;-0.10;1.00
11009;DHT22;5557;51.670;7.788;2024-01-07T16:11:11;-0.10;1.00